createdAt,value
2022-11-07T00:01:00.831Z,6.3
2022-11-07T00:02:07.627Z,6.3
2022-11-07T00:03:15.411Z,6.3
2022-11-07T00:04:21.579Z,6.3
2022-11-07T00:05:28.762Z,6.3
2022-11-07T00:06:35.817Z,6.3
2022-11-07T00:07:42.919Z,6.3
2022-11-07T00:08:50.224Z,6.3
2022-11-07T00:09:56.663Z,6.3
2022-11-07T00:12:10.858Z,6.3
2022-11-07T00:13:17.937Z,6.3
2022-11-07T00:14:24.621Z,6.4
2022-11-07T00:15:31.594Z,6.4
2022-11-07T00:16:38.783Z,6.4
2022-11-07T00:17:45.840Z,6.4
2022-11-07T00:18:52.930Z,6.4
2022-11-07T00:19:59.639Z,6.4
2022-11-07T00:21:06.679Z,6.4
2022-11-07T00:22:13.729Z,6.5
2022-11-07T00:24:28.201Z,6.5
2022-11-07T00:25:34.623Z,6.5
2022-11-07T00:26:41.661Z,6.5
2022-11-07T00:27:48.791Z,6.5
2022-11-07T00:28:55.852Z,6.5
2022-11-07T00:30:03.444Z,6.5
2022-11-07T00:31:09.588Z,6.5
2022-11-07T00:32:16.655Z,6.5
2022-11-07T00:33:23.713Z,6.5
2022-11-07T00:34:30.859Z,6.5
2022-11-07T00:35:37.992Z,6.5
2022-11-07T00:36:45.132Z,6.5
2022-11-07T00:37:51.667Z,6.5
2022-11-07T00:38:58.825Z,6.5
2022-11-07T00:40:05.975Z,6.5
2022-11-07T00:41:12.993Z,6.5
2022-11-07T00:42:19.546Z,6.5
2022-11-07T00:43:26.769Z,6.5
2022-11-07T00:44:33.758Z,6.5
2022-11-07T00:45:40.913Z,6.5
2022-11-07T00:47:54.577Z,6.4
2022-11-07T00:49:01.695Z,6.4
2022-11-07T00:50:08.778Z,6.4
2022-11-07T00:51:15.978Z,6.4
2022-11-07T00:52:22.950Z,6.3
2022-11-07T00:53:29.562Z,6.3
2022-11-07T00:54:36.718Z,6.3
2022-11-07T00:55:43.853Z,6.3
2022-11-07T00:56:50.882Z,6.3
2022-11-07T00:57:57.487Z,6.3
2022-11-07T00:59:04.589Z,6.3
2022-11-07T01:00:11.705Z,6.3
2022-11-07T01:01:18.885Z,6.3
2022-11-07T01:02:26.073Z,6.3
2022-11-07T01:03:32.964Z,6.3
2022-11-07T01:04:39.601Z,6.3
2022-11-07T01:05:46.789Z,6.3
2022-11-07T01:06:53.800Z,6.2
2022-11-07T01:08:00.942Z,6.2
2022-11-07T01:09:08.049Z,6.2
2022-11-07T01:10:14.595Z,6.2
2022-11-07T01:11:21.739Z,6.2
2022-11-07T01:12:28.805Z,6.1
2022-11-07T01:13:35.914Z,6.2
2022-11-07T01:15:49.687Z,6.1
2022-11-07T01:16:56.677Z,6.1
2022-11-07T01:18:03.812Z,6.2
2022-11-07T01:19:10.897Z,6.1
2022-11-07T01:20:18.050Z,6.1
2022-11-07T01:21:24.624Z,6.1
2022-11-07T01:22:31.833Z,6.1
2022-11-07T01:23:38.880Z,6.1
2022-11-07T01:24:45.951Z,6.1
2022-11-07T01:26:59.711Z,6.1
2022-11-07T01:29:13.841Z,6.1
2022-11-07T01:30:20.900Z,6.1
2022-11-07T01:31:28.131Z,6.1
2022-11-07T01:32:34.621Z,6.1
2022-11-07T01:33:41.759Z,6.1
2022-11-07T01:34:48.841Z,6.1
2022-11-07T01:35:56.029Z,6.1
2022-11-07T01:37:03.017Z,6.1
2022-11-07T01:38:09.650Z,6.1
2022-11-07T01:39:16.742Z,6.1
2022-11-07T01:40:23.860Z,6.1
2022-11-07T01:41:30.942Z,6.1
2022-11-07T01:42:38.099Z,6.1
2022-11-07T01:43:44.640Z,6.1
2022-11-07T01:44:51.751Z,6.1
2022-11-07T01:45:58.937Z,6.1
2022-11-07T01:47:05.970Z,6.1
2022-11-07T01:48:13.069Z,6.2
2022-11-07T01:49:19.642Z,6.1
2022-11-07T01:50:26.785Z,6.1
2022-11-07T01:51:33.863Z,6.2
2022-11-07T01:52:40.932Z,6.2
2022-11-07T01:53:47.560Z,6.2
2022-11-07T01:54:54.650Z,6.2
2022-11-07T01:56:01.785Z,6.1
2022-11-07T01:57:08.866Z,6.2
2022-11-07T01:58:15.933Z,6.1
2022-11-07T01:59:22.561Z,6.1
2022-11-07T02:00:29.701Z,6.1
2022-11-07T02:01:36.899Z,6.1
2022-11-07T02:02:44.912Z,6.1
2022-11-07T02:03:50.944Z,6.1
2022-11-07T02:04:58.123Z,6.1
2022-11-07T02:06:04.750Z,6.1
2022-11-07T02:07:11.768Z,6.1
2022-11-07T02:08:18.930Z,6.1
2022-11-07T02:10:32.619Z,6.1
2022-11-07T02:11:39.721Z,6.1
2022-11-07T02:12:46.831Z,6.1
2022-11-07T02:13:53.911Z,6.1
2022-11-07T02:15:00.963Z,6.1
2022-11-07T02:16:07.692Z,6.1
2022-11-07T02:17:14.717Z,6.1
2022-11-07T02:19:28.890Z,6.1
2022-11-07T02:20:35.990Z,6.1
2022-11-07T02:22:49.732Z,6.2
2022-11-07T02:23:56.822Z,6.2
2022-11-07T02:25:03.896Z,6.2
2022-11-07T02:26:11.085Z,6.2
2022-11-07T02:27:17.620Z,6.2
2022-11-07T02:28:24.661Z,6.2
2022-11-07T02:29:31.773Z,6.2
2022-11-07T02:30:38.993Z,6.2
2022-11-07T02:31:46.146Z,6.2
2022-11-07T02:32:52.611Z,6.2
2022-11-07T02:33:59.741Z,6.2
2022-11-07T02:35:06.782Z,6.2
2022-11-07T02:36:13.950Z,6.2
2022-11-07T02:37:20.991Z,6.2
2022-11-07T02:38:27.672Z,6.2
2022-11-07T02:39:34.749Z,6.3
2022-11-07T02:40:41.832Z,6.3
2022-11-07T02:41:48.925Z,6.3
2022-11-07T02:42:56.050Z,6.3
2022-11-07T02:44:02.620Z,6.3
2022-11-07T02:45:09.750Z,6.3
2022-11-07T02:46:16.891Z,6.3
2022-11-07T02:47:23.964Z,6.3
2022-11-07T02:48:31.059Z,6.3
2022-11-07T02:51:51.865Z,6.3
2022-11-07T02:52:59.000Z,6.4
2022-11-07T02:54:05.553Z,6.4
2022-11-07T02:55:12.623Z,6.4
2022-11-07T02:56:19.830Z,6.4
2022-11-07T02:57:26.916Z,6.4
2022-11-07T02:58:33.921Z,6.4
2022-11-07T02:59:40.521Z,6.4
2022-11-07T03:00:47.649Z,6.5
2022-11-07T03:01:55.030Z,6.5
2022-11-07T03:03:01.854Z,6.5
2022-11-07T03:04:08.993Z,6.5
2022-11-07T03:05:15.564Z,6.5
2022-11-07T03:06:22.709Z,6.5
2022-11-07T03:07:29.772Z,6.5
2022-11-07T03:08:36.920Z,6.5
2022-11-07T03:09:43.970Z,6.5
2022-11-07T03:10:50.518Z,6.5
2022-11-07T03:11:57.617Z,6.5
2022-11-07T03:13:04.764Z,6.5
2022-11-07T03:14:11.837Z,6.5
2022-11-07T03:15:18.972Z,6.5
2022-11-07T03:16:25.660Z,6.5
2022-11-07T03:18:39.816Z,6.5
2022-11-07T03:19:46.916Z,6.5
2022-11-07T03:20:54.005Z,6.5
2022-11-07T03:23:10.867Z,6.6
2022-11-07T03:24:14.820Z,6.6
2022-11-07T03:25:21.875Z,6.6
2022-11-07T03:26:29.068Z,6.6
2022-11-07T03:27:35.572Z,6.6
2022-11-07T03:28:42.643Z,6.6
2022-11-07T03:29:49.848Z,6.6
2022-11-07T03:30:56.930Z,6.6
2022-11-07T03:34:17.757Z,6.6
2022-11-07T03:35:24.830Z,6.6
2022-11-07T03:36:31.930Z,6.6
2022-11-07T03:37:38.969Z,6.6
2022-11-07T03:38:45.627Z,6.7
2022-11-07T03:39:52.699Z,6.7
2022-11-07T03:40:59.893Z,6.7
2022-11-07T03:42:06.972Z,6.6
2022-11-07T03:43:14.334Z,6.7
2022-11-07T03:44:20.600Z,6.7
2022-11-07T03:45:27.781Z,6.7
2022-11-07T03:46:34.880Z,6.7
2022-11-07T03:47:41.959Z,6.7
2022-11-07T03:48:49.007Z,6.8
2022-11-07T03:49:55.598Z,6.8
2022-11-07T03:51:02.736Z,6.8
2022-11-07T03:52:10.374Z,6.8
2022-11-07T03:53:20.832Z,6.8
2022-11-07T03:54:24.017Z,6.8
2022-11-07T03:55:30.619Z,6.8
2022-11-07T03:56:37.723Z,6.8
2022-11-07T03:57:44.831Z,6.8
2022-11-07T03:58:51.973Z,6.8
2022-11-07T03:59:59.037Z,6.8
2022-11-07T04:01:05.713Z,6.9
2022-11-07T04:02:12.872Z,6.9
2022-11-07T04:03:19.862Z,6.8
2022-11-07T04:04:26.960Z,6.8
2022-11-07T04:05:33.533Z,6.8
2022-11-07T04:06:40.592Z,6.8
2022-11-07T04:07:47.792Z,6.8
2022-11-07T04:08:54.860Z,6.8
2022-11-07T04:10:02.026Z,6.8
2022-11-07T04:11:08.591Z,6.8
2022-11-07T04:12:15.630Z,6.8
2022-11-07T04:14:29.910Z,6.9
2022-11-07T04:15:36.950Z,6.9
2022-11-07T04:16:43.532Z,6.9
2022-11-07T04:17:50.663Z,6.9
2022-11-07T04:18:57.774Z,6.9
2022-11-07T04:21:11.986Z,6.9
2022-11-07T04:22:18.648Z,7
2022-11-07T04:23:25.670Z,7
2022-11-07T04:24:32.752Z,7
2022-11-07T04:26:47.007Z,7
2022-11-07T04:27:53.550Z,7
2022-11-07T04:29:00.671Z,7
2022-11-07T04:30:07.770Z,7
2022-11-07T04:31:14.905Z,7
2022-11-07T04:32:21.983Z,7.1
2022-11-07T04:33:28.578Z,7.1
2022-11-07T04:34:35.713Z,7.1
2022-11-07T04:35:42.753Z,7.1
2022-11-07T04:36:50.071Z,7.2
2022-11-07T04:37:57.011Z,7.2
2022-11-07T04:39:03.562Z,7.2
2022-11-07T04:40:10.667Z,7.2
2022-11-07T04:41:17.883Z,7.2
2022-11-07T04:42:24.885Z,7.2
2022-11-07T04:43:31.990Z,7.2
2022-11-07T04:44:38.598Z,7.2
2022-11-07T04:45:45.699Z,7.2
2022-11-07T04:46:52.859Z,7.2
2022-11-07T04:49:06.980Z,7.2
2022-11-07T04:50:13.541Z,7.2
2022-11-07T04:51:20.746Z,7.2
2022-11-07T04:52:27.821Z,7.2
2022-11-07T04:53:34.892Z,7.3
2022-11-07T04:55:48.635Z,7.3
2022-11-07T04:56:55.834Z,7.3
2022-11-07T04:58:02.830Z,7.3
2022-11-07T04:59:09.867Z,7.3
2022-11-07T05:00:17.039Z,7.4
2022-11-07T05:02:30.844Z,7.4
2022-11-07T05:03:41.559Z,7.4
2022-11-07T05:04:44.899Z,7.4
2022-11-07T05:05:51.982Z,7.4
2022-11-07T05:06:58.702Z,7.4
2022-11-07T05:08:05.741Z,7.4
2022-11-07T05:09:12.817Z,7.4
2022-11-07T05:10:19.999Z,7.4
2022-11-07T05:11:27.116Z,7.5
2022-11-07T05:12:33.573Z,7.5
2022-11-07T05:13:40.730Z,7.5
2022-11-07T05:14:47.823Z,7.5
2022-11-07T05:17:02.065Z,7.5
2022-11-07T05:18:08.662Z,7.5
2022-11-07T05:19:15.730Z,7.5
2022-11-07T05:20:22.793Z,7.5
2022-11-07T05:21:30.130Z,7.5
2022-11-07T05:22:37.073Z,7.5
2022-11-07T05:23:43.586Z,7.5
2022-11-07T05:24:50.742Z,7.4
2022-11-07T05:25:57.891Z,7.5
2022-11-07T05:27:04.971Z,7.5
2022-11-07T05:28:11.487Z,7.4
2022-11-07T05:30:25.750Z,7.4
2022-11-07T05:31:33.140Z,7.4
2022-11-07T05:32:39.952Z,7.4
2022-11-07T05:33:46.592Z,7.4
2022-11-07T05:34:53.605Z,7.4
2022-11-07T05:37:07.850Z,7.4
2022-11-07T05:38:15.089Z,7.4
2022-11-07T05:39:21.520Z,7.4
2022-11-07T05:40:28.710Z,7.4
2022-11-07T05:41:35.859Z,7.4
2022-11-07T05:42:44.806Z,7.4
2022-11-07T05:43:50.017Z,7.4
2022-11-07T05:44:56.547Z,7.4
2022-11-07T05:46:03.679Z,7.4
2022-11-07T05:47:10.738Z,7.4
2022-11-07T05:48:17.906Z,7.4
2022-11-07T05:49:25.009Z,7.4
2022-11-07T05:50:32.615Z,7.4
2022-11-07T05:51:38.711Z,7.4
2022-11-07T05:52:45.868Z,7.4
2022-11-07T05:53:52.922Z,7.4
2022-11-07T05:55:00.012Z,7.4
2022-11-07T05:56:06.599Z,7.4
2022-11-07T05:57:13.678Z,7.4
2022-11-07T05:58:20.887Z,7.4
2022-11-07T05:59:27.942Z,7.4
2022-11-07T06:00:34.978Z,7.4
2022-11-07T06:01:41.736Z,7.4
2022-11-07T06:02:48.862Z,7.4
2022-11-07T06:03:55.785Z,7.4
2022-11-07T06:05:02.921Z,7.4
2022-11-07T06:06:09.990Z,7.3
2022-11-07T06:07:16.607Z,7.4
2022-11-07T06:08:23.654Z,7.3
2022-11-07T06:09:30.809Z,7.3
2022-11-07T06:10:37.890Z,7.3
2022-11-07T06:11:45.068Z,7.3
2022-11-07T06:12:56.049Z,7.3
2022-11-07T06:13:58.693Z,7.3
2022-11-07T06:15:05.795Z,7.3
2022-11-07T06:16:12.875Z,7.3
2022-11-07T06:18:27.160Z,7.3
2022-11-07T06:19:33.722Z,7.2
2022-11-07T06:20:40.804Z,7.2
2022-11-07T06:21:47.940Z,7.2
2022-11-07T06:22:55.053Z,7.2
2022-11-07T06:24:01.590Z,7.2
2022-11-07T06:25:08.776Z,7.2
2022-11-07T06:26:15.840Z,7.2
2022-11-07T06:27:22.928Z,7.2
2022-11-07T06:28:30.057Z,7.2
2022-11-07T06:30:43.724Z,7.2
2022-11-07T06:31:50.872Z,7.2
2022-11-07T06:34:05.038Z,7.2
2022-11-07T06:35:11.670Z,7.2
2022-11-07T06:36:18.770Z,7.2
2022-11-07T06:37:25.822Z,7.2
2022-11-07T06:38:32.898Z,7.2
2022-11-07T06:39:39.523Z,7.2
2022-11-07T06:40:46.650Z,7.2
2022-11-07T06:41:53.820Z,7.2
2022-11-07T06:43:00.820Z,7.2
2022-11-07T06:44:07.980Z,7.2
2022-11-07T06:45:14.525Z,7.2
2022-11-07T06:47:28.761Z,7.2
2022-11-07T06:48:35.876Z,7.2
2022-11-07T06:49:42.942Z,7.2
2022-11-07T06:50:49.604Z,7.2
2022-11-07T06:51:56.740Z,7.2
2022-11-07T06:53:03.750Z,7.2
2022-11-07T06:54:10.819Z,7.2
2022-11-07T06:55:17.949Z,7.2
2022-11-07T06:56:24.544Z,7.2
2022-11-07T06:57:31.653Z,7.2
2022-11-07T06:59:51.434Z,7.2
2022-11-07T07:00:53.010Z,7.2
2022-11-07T07:01:59.739Z,7.2
2022-11-07T07:03:06.850Z,7.2
2022-11-07T07:04:13.728Z,7.2
2022-11-07T07:05:21.367Z,7.2
2022-11-07T07:06:27.968Z,7.1
2022-11-07T07:07:34.600Z,7.1
2022-11-07T07:08:41.660Z,7.1
2022-11-07T07:09:48.763Z,7.1
2022-11-07T07:10:55.891Z,7.1
2022-11-07T07:12:03.083Z,7.1
2022-11-07T07:13:09.611Z,7.1
2022-11-07T07:15:23.738Z,7.1
2022-11-07T07:16:30.847Z,7.2
2022-11-07T07:17:38.032Z,7.2
2022-11-07T07:18:44.590Z,7.2
2022-11-07T07:19:51.703Z,7.2
2022-11-07T07:20:58.788Z,7.2
2022-11-07T07:22:05.967Z,7.2
2022-11-07T07:23:12.963Z,7.2
2022-11-07T07:24:19.561Z,7.2
2022-11-07T07:25:26.699Z,7.2
2022-11-07T07:26:33.811Z,7.2
2022-11-07T07:27:40.912Z,7.2
2022-11-07T07:28:48.040Z,7.1
2022-11-07T07:29:54.614Z,7.1
2022-11-07T07:31:01.711Z,7.1
2022-11-07T07:32:08.889Z,7.1
2022-11-07T07:33:16.401Z,7
2022-11-07T07:34:22.975Z,7
2022-11-07T07:35:29.639Z,7
2022-11-07T07:37:43.862Z,7
2022-11-07T07:38:50.875Z,7
2022-11-07T07:41:04.629Z,7
2022-11-07T07:42:11.791Z,6.9
2022-11-07T07:43:19.186Z,6.9
2022-11-07T07:44:25.897Z,6.9
2022-11-07T07:45:33.020Z,6.9
2022-11-07T07:46:39.672Z,6.8
2022-11-07T07:47:46.763Z,6.8
2022-11-07T07:48:54.900Z,6.8
2022-11-07T07:50:00.896Z,6.8
2022-11-07T07:51:08.083Z,6.8
2022-11-07T07:52:14.676Z,6.8
2022-11-07T07:53:21.740Z,6.8
2022-11-07T07:54:28.870Z,6.8
2022-11-07T07:55:35.986Z,6.8
2022-11-07T07:56:42.489Z,6.8
2022-11-07T07:58:56.743Z,6.8
2022-11-07T08:00:03.810Z,6.8
2022-11-07T08:01:10.964Z,6.8
2022-11-07T08:02:17.692Z,6.8
2022-11-07T08:03:24.701Z,6.8
2022-11-07T08:04:31.784Z,6.8
2022-11-07T08:05:38.897Z,6.8
2022-11-07T08:06:46.160Z,6.8
2022-11-07T08:07:52.504Z,6.8
2022-11-07T08:08:59.677Z,6.8
2022-11-07T08:10:35.059Z,6.8
2022-11-07T08:11:13.863Z,6.8
2022-11-07T08:12:20.984Z,6.8
2022-11-07T08:13:27.592Z,6.8
2022-11-07T08:14:34.663Z,6.8
2022-11-07T08:15:41.726Z,6.8
2022-11-07T08:16:48.449Z,6.8
2022-11-07T08:17:55.956Z,6.8
2022-11-07T08:19:02.582Z,6.8
2022-11-07T08:20:09.682Z,6.8
2022-11-07T08:22:23.918Z,6.8
2022-11-07T08:23:30.987Z,6.9
2022-11-07T08:24:37.565Z,6.9
2022-11-07T08:25:44.711Z,6.9
2022-11-07T08:26:51.832Z,6.9
2022-11-07T08:27:58.879Z,6.9
2022-11-07T08:29:06.013Z,6.9
2022-11-07T08:30:17.555Z,7
2022-11-07T08:31:19.755Z,7
2022-11-07T08:32:26.871Z,7
2022-11-07T08:33:33.984Z,7
2022-11-07T08:34:41.008Z,7
2022-11-07T08:35:47.672Z,7
2022-11-07T08:36:54.736Z,7
2022-11-07T08:38:01.778Z,7
2022-11-07T08:39:09.983Z,7.1
2022-11-07T08:41:22.749Z,7.1
2022-11-07T08:42:29.753Z,7.2
2022-11-07T08:43:36.757Z,7.2
2022-11-07T08:45:50.970Z,7.2
2022-11-07T08:46:57.673Z,7.2
2022-11-07T08:48:04.699Z,7.2
2022-11-07T08:49:11.843Z,7.2
2022-11-07T08:50:19.188Z,7.3
2022-11-07T08:51:26.101Z,7.3
2022-11-07T08:52:32.595Z,7.4
2022-11-07T08:53:39.742Z,7.4
2022-11-07T08:54:46.949Z,7.4
2022-11-07T08:55:53.875Z,7.4
2022-11-07T08:57:01.055Z,7.4
2022-11-07T08:58:07.600Z,7.4
2022-11-07T08:59:14.705Z,7.4
2022-11-07T09:00:21.818Z,7.5
2022-11-07T09:01:29.180Z,7.5
2022-11-07T09:03:47.271Z,7.5
2022-11-07T09:04:49.771Z,7.5
2022-11-07T09:05:56.957Z,7.6
2022-11-07T09:07:03.967Z,7.6
2022-11-07T09:08:11.032Z,7.6
2022-11-07T09:09:17.630Z,7.7
2022-11-07T09:10:24.753Z,7.7
2022-11-07T09:11:31.860Z,7.7
2022-11-07T09:13:46.091Z,7.7
2022-11-07T09:14:52.641Z,7.7
2022-11-07T09:15:59.780Z,7.7
2022-11-07T09:17:06.951Z,7.7
2022-11-07T09:18:13.937Z,7.7
2022-11-07T09:19:21.009Z,7.7
2022-11-07T09:20:28.747Z,7.7
2022-11-07T09:21:34.739Z,7.7
2022-11-07T09:22:44.924Z,7.7
2022-11-07T09:23:48.984Z,7.7
2022-11-07T09:24:55.571Z,7.7
2022-11-07T09:27:09.843Z,7.7
2022-11-07T09:28:16.853Z,7.7
2022-11-07T09:29:23.967Z,7.7
2022-11-07T09:30:30.507Z,7.7
2022-11-07T09:31:37.662Z,7.7
2022-11-07T09:32:45.839Z,7.7
2022-11-07T09:33:51.861Z,7.7
2022-11-07T09:35:04.494Z,7.7
2022-11-07T09:36:05.607Z,7.7
2022-11-07T09:37:12.691Z,7.7
2022-11-07T09:38:19.820Z,7.7
2022-11-07T09:39:26.913Z,7.7
2022-11-07T09:41:40.623Z,7.7
2022-11-07T09:42:47.745Z,7.7
2022-11-07T09:45:01.857Z,7.7
2022-11-07T09:46:09.033Z,7.7
2022-11-07T09:47:15.680Z,7.7
2022-11-07T09:48:22.752Z,7.7
2022-11-07T09:49:29.815Z,7.7
2022-11-07T09:50:36.951Z,7.8
2022-11-07T09:51:43.997Z,7.8
2022-11-07T09:52:50.579Z,7.8
2022-11-07T09:53:57.824Z,7.8
2022-11-07T09:55:04.823Z,7.8
2022-11-07T09:56:11.917Z,7.8
2022-11-07T09:57:19.082Z,7.9
2022-11-07T09:58:25.558Z,7.9
2022-11-07T09:59:32.684Z,7.9
2022-11-07T10:00:39.861Z,7.9
2022-11-07T10:01:48.168Z,7.9
2022-11-07T10:02:54.022Z,7.9
2022-11-07T10:04:25.396Z,7.9
2022-11-07T10:05:07.690Z,7.9
2022-11-07T10:06:16.247Z,7.9
2022-11-07T10:07:21.901Z,8
2022-11-07T10:08:29.183Z,8
2022-11-07T10:09:35.642Z,8
2022-11-07T10:10:42.672Z,8.1
2022-11-07T10:11:49.894Z,8.1
2022-11-07T10:12:56.918Z,8.1
2022-11-07T10:14:04.017Z,8.1
2022-11-07T10:15:11.132Z,8.1
2022-11-07T10:16:17.735Z,8.1
2022-11-07T10:17:24.864Z,8.2
2022-11-07T10:18:31.885Z,8.2
2022-11-07T10:19:38.990Z,8.2
2022-11-07T10:20:45.673Z,8.2
2022-11-07T10:21:52.812Z,8.2
2022-11-07T10:22:59.901Z,8.2
2022-11-07T10:24:06.974Z,8.2
2022-11-07T10:26:20.586Z,8.2
2022-11-07T10:27:27.762Z,8.2
2022-11-07T10:28:34.828Z,8.2
2022-11-07T10:29:44.569Z,8.2
2022-11-07T10:30:49.062Z,8.2
2022-11-07T10:31:55.752Z,8.2
2022-11-07T10:33:02.696Z,8.2
2022-11-07T10:34:09.839Z,8.2
2022-11-07T10:35:16.981Z,8.2
2022-11-07T10:36:23.552Z,8.2
2022-11-07T10:37:30.600Z,8.1
2022-11-07T10:38:37.781Z,8.2
2022-11-07T10:39:44.889Z,8.1
2022-11-07T10:40:51.926Z,8.1
2022-11-07T10:41:58.779Z,8.1
2022-11-07T10:44:12.787Z,8.1
2022-11-07T10:45:19.848Z,8.1
2022-11-07T10:46:27.000Z,8.1
2022-11-07T10:48:40.662Z,8.1
2022-11-07T10:49:47.846Z,8.1
2022-11-07T10:50:54.890Z,8
2022-11-07T10:52:02.014Z,8
2022-11-07T10:53:08.547Z,8
2022-11-07T10:55:22.785Z,8
2022-11-07T10:56:29.894Z,8
2022-11-07T10:57:37.010Z,8
2022-11-07T10:58:43.566Z,8
2022-11-07T10:59:50.674Z,8
2022-11-07T11:00:57.820Z,7.9
2022-11-07T11:02:05.028Z,7.9
2022-11-07T11:03:11.989Z,8
2022-11-07T11:04:18.576Z,7.9
2022-11-07T11:05:25.709Z,7.9
2022-11-07T11:07:39.910Z,7.9
2022-11-07T11:08:47.053Z,7.9
2022-11-07T11:09:53.592Z,7.9
2022-11-07T11:12:07.803Z,7.9
2022-11-07T11:13:14.942Z,7.9
2022-11-07T11:14:22.047Z,7.9
2022-11-07T11:15:32.864Z,7.9
2022-11-07T11:16:35.712Z,7.9
2022-11-07T11:17:42.834Z,7.9
2022-11-07T11:18:49.923Z,7.9
2022-11-07T11:19:57.067Z,7.9
2022-11-07T11:21:03.602Z,7.9
2022-11-07T11:22:10.724Z,7.9
2022-11-07T11:23:18.210Z,7.9
2022-11-07T11:24:24.439Z,7.9
2022-11-07T11:25:32.012Z,7.9
2022-11-07T11:26:38.632Z,7.9
2022-11-07T11:27:45.757Z,7.9
2022-11-07T11:28:52.833Z,7.9
2022-11-07T11:30:00.048Z,7.9
2022-11-07T11:31:07.084Z,7.9
2022-11-07T11:32:13.636Z,7.9
2022-11-07T11:33:20.737Z,7.9
2022-11-07T11:34:27.893Z,7.9
2022-11-07T11:35:40.346Z,8
2022-11-07T11:36:42.057Z,8
2022-11-07T11:37:48.709Z,8
2022-11-07T11:40:02.841Z,8.1
2022-11-07T11:41:11.073Z,8.1
2022-11-07T11:42:17.093Z,8.1
2022-11-07T11:43:23.622Z,8.1
2022-11-07T11:44:30.734Z,8.1
2022-11-07T11:45:37.869Z,8.1
2022-11-07T11:46:44.979Z,8.1
2022-11-07T11:48:58.712Z,8.1
2022-11-07T11:50:05.727Z,8.1
2022-11-07T11:52:20.053Z,8.1
2022-11-07T11:53:26.497Z,8.1
2022-11-07T11:54:33.649Z,8.1
2022-11-07T11:55:40.743Z,8.1
2022-11-07T11:56:47.916Z,8.2
2022-11-07T11:57:54.989Z,8.1
2022-11-07T11:59:01.502Z,8.2
2022-11-07T12:00:08.829Z,8.2
2022-11-07T12:01:15.799Z,8.2
2022-11-07T12:02:22.970Z,8.2
2022-11-07T12:03:30.012Z,8.2
2022-11-07T12:04:36.606Z,8.2
2022-11-07T12:05:44.289Z,8.2
2022-11-07T12:07:57.853Z,8.3
2022-11-07T12:09:04.957Z,8.3
2022-11-07T12:10:11.588Z,8.3
2022-11-07T12:11:18.654Z,8.3
2022-11-07T12:12:25.816Z,8.4
2022-11-07T12:13:32.922Z,8.4
2022-11-07T12:14:40.039Z,8.4
2022-11-07T12:15:46.547Z,8.4
2022-11-07T12:16:53.684Z,8.4
2022-11-07T12:18:00.922Z,8.5
2022-11-07T12:19:07.870Z,8.5
2022-11-07T12:20:14.972Z,8.5
2022-11-07T12:21:21.574Z,8.5
2022-11-07T12:23:35.997Z,8.5
2022-11-07T12:24:42.858Z,8.6
2022-11-07T12:25:49.984Z,8.6
2022-11-07T12:26:58.116Z,8.6
2022-11-07T12:28:03.717Z,8.6
2022-11-07T12:30:17.966Z,8.6
2022-11-07T12:31:24.991Z,8.6
2022-11-07T12:32:31.633Z,8.6
2022-11-07T12:33:38.763Z,8.6
2022-11-07T12:35:52.971Z,8.6
2022-11-07T12:37:00.106Z,8.6
2022-11-07T12:38:06.696Z,8.6
2022-11-07T12:39:13.657Z,8.6
2022-11-07T12:40:20.858Z,8.6
2022-11-07T12:41:28.035Z,8.6
2022-11-07T12:42:35.199Z,8.7
2022-11-07T12:43:41.645Z,8.7
2022-11-07T12:44:48.706Z,8.7
2022-11-07T12:45:55.913Z,8.7
2022-11-07T12:47:03.493Z,8.7
2022-11-07T12:48:13.217Z,8.7
2022-11-07T12:49:16.692Z,8.7
2022-11-07T12:50:23.680Z,8.7
2022-11-07T12:51:30.876Z,8.7
2022-11-07T12:52:37.999Z,8.7
2022-11-07T12:53:44.693Z,8.8
2022-11-07T12:55:58.720Z,8.8
2022-11-07T12:57:05.818Z,8.8
2022-11-07T12:58:13.064Z,8.8
2022-11-07T12:59:19.671Z,8.8
2022-11-07T13:00:29.871Z,8.8
2022-11-07T13:01:33.830Z,8.8
2022-11-07T13:02:40.966Z,8.9
2022-11-07T13:03:48.019Z,8.9
2022-11-07T13:04:54.738Z,8.9
2022-11-07T13:06:01.743Z,8.9
2022-11-07T13:07:08.831Z,8.8
2022-11-07T13:08:15.917Z,8.8
2022-11-07T13:09:23.008Z,8.8
2022-11-07T13:10:29.676Z,8.8
2022-11-07T13:11:36.707Z,8.8
2022-11-07T13:12:45.170Z,8.8
2022-11-07T13:13:50.939Z,8.8
2022-11-07T13:14:58.035Z,8.8
2022-11-07T13:16:15.497Z,8.8
2022-11-07T13:17:11.722Z,8.8
2022-11-07T13:18:18.749Z,8.8
2022-11-07T13:19:29.376Z,8.8
2022-11-07T13:20:33.003Z,8.8
2022-11-07T13:21:39.724Z,8.8
2022-11-07T13:22:46.655Z,8.8
2022-11-07T13:23:53.718Z,8.8
2022-11-07T13:25:04.623Z,8.8
2022-11-07T13:26:26.219Z,8.8
2022-11-07T13:27:14.547Z,8.8
2022-11-07T13:28:22.149Z,8.8
2022-11-07T13:29:28.768Z,8.8
2022-11-07T13:30:35.979Z,8.8
2022-11-07T13:31:43.014Z,8.8
2022-11-07T13:32:49.711Z,8.8
2022-11-07T13:33:56.708Z,8.9
2022-11-07T13:35:03.734Z,8.9
2022-11-07T13:36:10.841Z,8.9
2022-11-07T13:37:18.675Z,8.9
2022-11-07T13:38:24.631Z,8.9
2022-11-07T13:39:31.699Z,8.9
2022-11-07T13:40:38.813Z,9
2022-11-07T13:41:45.975Z,9
2022-11-07T13:42:52.955Z,9
2022-11-07T13:43:59.672Z,9
2022-11-07T13:45:06.768Z,9.1
2022-11-07T13:46:13.824Z,9.1
2022-11-07T13:47:21.055Z,9.1
2022-11-07T13:48:28.105Z,9.1
2022-11-07T13:49:36.074Z,9.1
2022-11-07T13:51:48.886Z,9.1
2022-11-07T13:52:55.867Z,9.1
2022-11-07T13:54:03.074Z,9.1
2022-11-07T13:55:09.633Z,9.1
2022-11-07T13:56:16.793Z,9.1
2022-11-07T13:57:23.856Z,9.1
2022-11-07T13:59:38.076Z,9.1
2022-11-07T14:00:44.821Z,9.1
2022-11-07T14:01:51.900Z,9.1
2022-11-07T14:02:58.980Z,9.1
2022-11-07T14:04:05.982Z,9.2
2022-11-07T14:06:19.672Z,9.2
2022-11-07T14:07:26.810Z,9.2
2022-11-07T14:08:33.823Z,9.3
2022-11-07T14:09:41.410Z,9.3
2022-11-07T14:10:48.086Z,9.3
2022-11-07T14:11:54.654Z,9.3
2022-11-07T14:13:01.692Z,9.3
2022-11-07T14:14:08.935Z,9.3
2022-11-07T14:15:16.073Z,9.3
2022-11-07T14:16:22.485Z,9.3
2022-11-07T14:17:29.656Z,9.3
2022-11-07T14:18:36.748Z,9.3
2022-11-07T14:19:43.870Z,9.3
2022-11-07T14:20:50.987Z,9.3
2022-11-07T14:21:57.580Z,9.3
2022-11-07T14:23:04.716Z,9.3
2022-11-07T14:24:11.698Z,9.3
2022-11-07T14:25:18.858Z,9.3
2022-11-07T14:26:25.987Z,9.3
2022-11-07T14:27:32.581Z,9.3
2022-11-07T14:28:39.696Z,9.3
2022-11-07T14:29:46.707Z,9.3
2022-11-07T14:30:53.811Z,9.3
2022-11-07T14:32:00.975Z,9.3
2022-11-07T14:34:14.734Z,9.2
2022-11-07T14:35:21.760Z,9.2
2022-11-07T14:36:28.853Z,9.2
2022-11-07T14:37:36.005Z,9.2
2022-11-07T14:38:42.511Z,9.1
2022-11-07T14:39:49.738Z,9.1
2022-11-07T14:40:56.834Z,9.1
2022-11-07T14:42:03.866Z,9.1
2022-11-07T14:43:10.937Z,9.1
2022-11-07T14:44:17.539Z,9.1
2022-11-07T14:45:47.148Z,9.1
2022-11-07T14:46:31.730Z,9.1
2022-11-07T14:47:39.023Z,9.1
2022-11-07T14:48:46.025Z,9.1
2022-11-07T14:49:52.591Z,9.1
2022-11-07T14:51:00.156Z,9.1
2022-11-07T14:52:06.945Z,9.1
2022-11-07T14:53:13.861Z,9.1
2022-11-07T14:54:21.065Z,9.1
2022-11-07T14:55:27.617Z,9.1
2022-11-07T14:56:34.673Z,9.1
2022-11-07T14:57:41.822Z,9.1
2022-11-07T14:58:48.873Z,9.1
2022-11-07T14:59:56.075Z,9.1
2022-11-07T15:01:02.663Z,9.1
2022-11-07T15:03:16.811Z,9.1
2022-11-07T15:04:23.881Z,9.1
2022-11-07T15:05:31.069Z,9.1
2022-11-07T15:06:37.567Z,9.1
2022-11-07T15:07:45.851Z,9.1
2022-11-07T15:08:51.897Z,9.1
2022-11-07T15:09:58.982Z,9.1
2022-11-07T15:11:06.082Z,9.1
2022-11-07T15:12:12.801Z,9.1
2022-11-07T15:13:19.705Z,9
2022-11-07T15:14:26.818Z,9
2022-11-07T15:15:33.967Z,9
2022-11-07T15:16:41.065Z,9
2022-11-07T15:17:47.645Z,9
2022-11-07T15:20:01.973Z,9
2022-11-07T15:21:08.917Z,9.1
2022-11-07T15:22:16.240Z,9.1
2022-11-07T15:23:22.700Z,9.1
2022-11-07T15:24:29.707Z,9.1
2022-11-07T15:25:36.919Z,9.1
2022-11-07T15:26:43.984Z,9.1
2022-11-07T15:27:50.480Z,9.1
2022-11-07T15:28:57.686Z,9.1
2022-11-07T15:30:04.808Z,9.1
2022-11-07T15:31:13.707Z,9.2
2022-11-07T15:32:19.614Z,9.2
2022-11-07T15:33:25.595Z,9.2
2022-11-07T15:34:56.946Z,9.2
2022-11-07T15:35:44.705Z,9.2
2022-11-07T15:36:46.930Z,9.3
2022-11-07T15:37:54.146Z,9.3
2022-11-07T15:39:00.633Z,9.3
2022-11-07T15:40:07.622Z,9.3
2022-11-07T15:41:14.834Z,9.3
2022-11-07T15:42:21.825Z,9.3
2022-11-07T15:43:28.946Z,9.3
2022-11-07T15:44:35.521Z,9.3
2022-11-07T15:45:42.687Z,9.3
2022-11-07T15:46:49.796Z,9.3
2022-11-07T15:47:57.001Z,9.3
2022-11-07T15:49:04.020Z,9.3
2022-11-07T15:50:10.622Z,9.3
2022-11-07T15:51:17.701Z,9.3
2022-11-07T15:52:24.803Z,9.3
2022-11-07T15:53:31.910Z,9.3
2022-11-07T15:54:39.038Z,9.3
2022-11-07T15:55:45.627Z,9.3
2022-11-07T15:56:58.105Z,9.3
2022-11-07T15:58:00.039Z,9.3
2022-11-07T15:59:06.991Z,9.3
2022-11-07T16:00:14.088Z,9.4
2022-11-07T16:01:20.761Z,9.4
2022-11-07T16:02:27.995Z,9.4
2022-11-07T16:04:41.840Z,9.4
2022-11-07T16:06:55.604Z,9.4
2022-11-07T16:08:02.630Z,9.4
2022-11-07T16:09:09.901Z,9.4
2022-11-07T16:10:16.995Z,9.4
2022-11-07T16:11:23.950Z,9.4
2022-11-07T16:12:30.637Z,9.4
2022-11-07T16:14:45.183Z,9.4
2022-11-07T16:15:51.852Z,9.4
2022-11-07T16:16:58.467Z,9.4
2022-11-07T16:18:05.569Z,9.4
2022-11-07T16:19:12.753Z,9.4
2022-11-07T16:20:19.762Z,9.4
2022-11-07T16:21:27.053Z,9.4
2022-11-07T16:22:33.552Z,9.4
2022-11-07T16:23:40.545Z,9.4
2022-11-07T16:24:47.802Z,9.4
2022-11-07T16:25:54.913Z,9.4
2022-11-07T16:27:01.979Z,9.4
2022-11-07T16:28:08.705Z,9.4
2022-11-07T16:29:15.658Z,9.4
2022-11-07T16:30:22.720Z,9.4
2022-11-07T16:32:37.037Z,9.3
2022-11-07T16:33:43.569Z,9.3
2022-11-07T16:34:50.697Z,9.3
2022-11-07T16:35:57.699Z,9.3
2022-11-07T16:37:04.884Z,9.3
2022-11-07T16:38:12.032Z,9.3
2022-11-07T16:39:19.144Z,9.3